Time;durP1;ratioP1;P1;durP2;ratioP2;P2;SDS_P1;SDS_P2;PMS_P1;PMS_P2;Temp;Humidity;BMP_temperature;BMP_pressure;BME280_temperature;BME280_humidity;BME280_pressure;Samples;Min_cycle;Max_cycle;Signal;HPM_P1;HPM_P2
2023/09/02 00:00:23;;;;;;;19.10;15.70;;;;;;;18.86;100.00;100258.99;105103;1266;61343;-58
2023/09/02 00:02:50;;;;;;;18.80;15.00;;;;;;;18.83;100.00;100257.15;104998;1262;74562;-58
2023/09/02 00:05:17;;;;;;;18.00;15.30;;;;;;;18.79;100.00;100260.88;105260;1266;67880;-67
2023/09/02 00:07:44;;;;;;;20.10;15.50;;;;;;;18.76;100.00;100263.11;104868;1267;73135;-60
2023/09/02 00:10:12;;;;;;;19.50;15.80;;;;;;;18.74;100.00;100259.98;105081;1262;61810;-59
2023/09/02 00:12:39;;;;;;;16.80;15.00;;;;;;;18.70;100.00;100261.51;105096;1263;61329;-59
2023/09/02 00:15:06;;;;;;;17.00;14.60;;;;;;;18.66;100.00;100259.50;105054;1266;74567;-64
2023/09/02 00:17:34;;;;;;;16.70;14.30;;;;;;;18.63;100.00;100258.45;105028;1266;66831;-60
2023/09/02 00:20:05;;;;;;;27.40;15.40;;;;;;;18.61;100.00;100259.63;105034;1267;71470;-58
2023/09/02 00:22:32;;;;;;;17.50;14.10;;;;;;;18.58;100.00;100256.88;104843;1268;61381;-61
2023/09/02 00:24:59;;;;;;;18.50;13.90;;;;;;;18.57;100.00;100257.44;105122;1267;61174;-60
2023/09/02 00:27:26;;;;;;;16.20;14.10;;;;;;;18.57;100.00;100255.90;105222;1264;73183;-67
2023/09/02 00:29:54;;;;;;;17.90;14.60;;;;;;;18.54;100.00;100253.59;104872;1262;68144;-58
2023/09/02 00:32:21;;;;;;;16.30;13.90;;;;;;;18.53;100.00;100258.37;104927;1266;72505;-58
2023/09/02 00:34:48;;;;;;;16.30;14.10;;;;;;;18.51;100.00;100260.39;104986;1267;61445;-59
2023/09/02 00:37:15;;;;;;;16.00;13.80;;;;;;;18.48;100.00;100260.23;105146;1264;61247;-60
2023/09/02 00:39:42;;;;;;;18.30;14.20;;;;;;;18.47;100.00;100267.54;105075;1266;74535;-60
2023/09/02 00:42:10;;;;;;;17.80;14.10;;;;;;;18.45;100.00;100270.31;104910;1268;65733;-60
2023/09/02 00:44:37;;;;;;;21.40;16.00;;;;;;;18.43;100.00;100272.74;104960;1269;71911;-62
2023/09/02 00:47:04;;;;;;;19.40;14.20;;;;;;;18.39;100.00;100273.25;105172;1266;62068;-60
2023/09/02 00:49:32;;;;;;;16.80;14.10;;;;;;;18.37;100.00;100274.61;105272;1264;61232;-63
2023/09/02 00:51:59;;;;;;;16.70;13.00;;;;;;;18.34;100.00;100274.84;104806;1267;74604;-60
2023/09/02 00:54:26;;;;;;;16.50;14.00;;;;;;;18.33;100.00;100278.92;105037;1263;65930;-61
2023/09/02 00:56:53;;;;;;;17.70;13.20;;;;;;;18.31;100.00;100280.47;105088;1267;71513;-61
2023/09/02 00:59:20;;;;;;;16.50;13.60;;;;;;;18.28;100.00;100279.83;105176;1263;61824;-61
2023/09/02 01:01:47;;;;;;;16.40;13.00;;;;;;;18.24;100.00;100279.44;105067;1268;60405;-61
2023/09/02 01:04:14;;;;;;;16.40;14.40;;;;;;;18.21;100.00;100281.65;105048;1267;74575;-60
2023/09/02 01:06:42;;;;;;;18.00;14.50;;;;;;;18.18;100.00;100281.22;105018;1263;67256;-62
2023/09/02 01:09:09;;;;;;;16.40;14.40;;;;;;;18.15;100.00;100280.75;105331;1262;71890;-59
2023/09/02 01:11:36;;;;;;;17.10;14.30;;;;;;;18.12;100.00;100279.10;105218;1263;62387;-66
2023/09/02 01:14:03;;;;;;;15.00;13.30;;;;;;;18.09;100.00;100288.14;105153;1262;61244;-60
2023/09/02 01:16:31;;;;;;;19.00;14.00;;;;;;;18.07;100.00;100284.67;105129;1267;74514;-60
2023/09/02 01:18:58;;;;;;;16.10;14.10;;;;;;;18.05;100.00;100285.48;104897;1268;65796;-60
2023/09/02 01:21:57;;;;;;;17.80;14.20;;;;;;;18.02;100.00;100287.20;104762;1268;73220;-64
2023/09/02 01:24:31;;;;;;;18.50;14.00;;;;;;;17.99;100.00;100286.05;104972;1263;61687;-61
2023/09/02 01:27:12;;;;;;;17.40;14.50;;;;;;;17.97;100.00;100292.33;104849;1269;61238;-60
2023/09/02 01:29:55;;;;;;;16.30;14.60;;;;;;;17.91;100.00;100293.73;104696;1271;74727;-60
2023/09/02 01:32:23;;;;;;;20.70;14.10;;;;;;;17.87;100.00;100299.27;104999;1263;67712;-62
2023/09/02 01:34:50;;;;;;;15.90;14.10;;;;;;;17.85;100.00;100300.23;104984;1267;71516;-60
2023/09/02 01:37:17;;;;;;;16.20;14.20;;;;;;;17.83;100.00;100305.77;104960;1264;61324;-59
2023/09/02 01:39:45;;;;;;;18.20;15.90;;;;;;;17.80;100.00;100306.88;104848;1270;61218;-60
2023/09/02 01:42:12;;;;;;;15.60;14.00;;;;;;;17.77;100.00;100307.98;104874;1269;73635;-60
2023/09/02 01:44:39;;;;;;;16.70;14.20;;;;;;;17.73;100.00;100306.31;104658;1271;67312;-67
2023/09/02 01:47:06;;;;;;;18.60;14.30;;;;;;;17.69;100.00;100311.08;105060;1269;72665;-60
2023/09/02 01:49:34;;;;;;;17.10;14.50;;;;;;;17.66;100.00;100307.53;104913;1263;61918;-59
2023/09/02 01:52:01;;;;;;;17.90;14.00;;;;;;;17.65;100.00;100304.01;104772;1269;61261;-59
2023/09/02 01:54:28;;;;;;;17.00;14.60;;;;;;;17.62;100.00;100303.73;105153;1268;74770;-61
2023/09/02 01:56:55;;;;;;;20.90;14.80;;;;;;;17.57;100.00;100309.38;104727;1270;67166;-61
2023/09/02 01:59:22;;;;;;;21.60;16.00;;;;;;;17.52;100.00;100308.55;104848;1264;72728;-59
2023/09/02 02:01:49;;;;;;;17.80;15.70;;;;;;;17.49;100.00;100311.35;104949;1264;62008;-58
2023/09/02 02:04:31;;;;;;;16.90;14.50;;;;;;;17.49;100.00;100308.59;105261;1264;61278;-69
2023/09/02 02:07:05;;;;;;;17.30;15.40;;;;;;;17.47;100.00;100313.25;105137;1268;74778;-60
2023/09/02 02:09:35;;;;;;;18.70;15.30;;;;;;;17.42;100.00;100317.64;105187;1268;66539;-58
2023/09/02 02:12:03;;;;;;;19.20;15.70;;;;;;;17.35;100.00;100322.32;104857;1271;71730;-60
2023/09/02 02:14:32;;;;;;;17.10;15.30;;;;;;;17.29;100.00;100325.02;105119;1267;61247;-65
2023/09/02 02:17:00;;;;;;;17.90;16.00;;;;;;;17.23;100.00;100323.98;105064;1264;61175;-58
2023/09/02 02:19:28;;;;;;;19.00;16.60;;;;;;;17.20;100.00;100329.81;104878;1269;74549;-60
2023/09/02 02:21:55;;;;;;;19.80;17.30;;;;;;;17.17;100.00;100330.90;104841;1271;66516;-61
2023/09/02 02:24:23;;;;;;;22.10;17.20;;;;;;;17.15;100.00;100328.73;105046;1268;71385;-59
2023/09/02 02:26:50;;;;;;;20.50;17.50;;;;;;;17.13;100.00;100330.27;104697;1263;61938;-59
2023/09/02 02:29:17;;;;;;;20.10;16.30;;;;;;;17.13;100.00;100329.58;104927;1266;61303;-58
2023/09/02 02:31:44;;;;;;;20.90;16.80;;;;;;;17.12;100.00;100331.13;104827;1262;74626;-59
2023/09/02 02:34:11;;;;;;;18.30;16.40;;;;;;;17.10;100.00;100333.83;105194;1266;65885;-67
2023/09/02 02:36:38;;;;;;;20.50;16.50;;;;;;;17.11;100.00;100335.30;104777;1263;71535;-59
2023/09/02 02:39:06;;;;;;;20.00;17.30;;;;;;;17.10;100.00;100340.23;104944;1266;61228;-58
2023/09/02 02:41:33;;;;;;;17.00;15.30;;;;;;;17.08;100.00;100343.49;104913;1264;61181;-59
2023/09/02 02:44:00;;;;;;;19.40;17.00;;;;;;;17.06;100.00;100345.39;104904;1266;73767;-67
2023/09/02 02:46:27;;;;;;;19.60;16.50;;;;;;;17.05;100.00;100339.01;105021;1266;67273;-63
2023/09/02 02:48:55;;;;;;;20.30;17.60;;;;;;;17.04;100.00;100340.02;104853;1268;72610;-60
2023/09/02 02:51:22;;;;;;;19.30;16.80;;;;;;;17.04;100.00;100344.19;104785;1276;61280;-58
2023/09/02 02:53:49;;;;;;;19.40;17.00;;;;;;;17.05;100.00;100346.38;105261;1268;59598;-66
2023/09/02 02:56:16;;;;;;;19.10;16.50;;;;;;;17.06;100.00;100351.04;104627;1276;73543;-59
2023/09/02 02:58:43;;;;;;;19.30;17.20;;;;;;;17.06;100.00;100360.64;105039;1269;66013;-60
2023/09/02 03:01:12;;;;;;;22.40;16.90;;;;;;;17.06;100.00;100367.27;105006;1268;71740;-59
2023/09/02 03:03:40;;;;;;;21.20;16.60;;;;;;;17.07;100.00;100365.86;104752;1268;60953;-58
2023/09/02 03:06:07;;;;;;;20.00;17.00;;;;;;;17.08;100.00;100371.16;104877;1269;61343;-58
2023/09/02 03:08:38;;;;;;;19.40;16.80;;;;;;;17.09;100.00;100369.87;105054;1268;74203;-67
2023/09/02 03:11:05;;;;;;;19.50;17.00;;;;;;;17.09;100.00;100372.46;105025;1266;67337;-58
2023/09/02 03:13:33;;;;;;;20.30;17.70;;;;;;;17.09;100.00;100372.26;104882;1268;72703;-58
2023/09/02 03:16:04;;;;;;;22.10;17.70;;;;;;;17.10;100.00;100375.80;104917;1263;62029;-58
2023/09/02 03:18:32;;;;;;;18.80;16.70;;;;;;;17.12;100.00;100381.21;105069;1270;61237;-65
2023/09/02 03:21:04;;;;;;;18.30;16.30;;;;;;;17.13;100.00;100380.30;104891;1268;74599;-58
2023/09/02 03:23:34;;;;;;;18.80;16.70;;;;;;;17.16;100.00;100385.69;104801;1269;67417;-58
2023/09/02 03:26:11;;;;;;;22.10;16.90;;;;;;;17.19;100.00;100393.89;104868;1269;72106;-58
2023/09/02 03:28:40;;;;;;;21.10;17.30;;;;;;;17.22;100.00;100398.10;104813;1269;62048;-59
2023/09/02 03:31:07;;;;;;;18.60;16.40;;;;;;;17.28;100.00;100401.86;104797;1263;61435;-58
2023/09/02 03:33:35;;;;;;;19.00;16.90;;;;;;;17.40;100.00;100402.23;105159;1264;73344;-64
2023/09/02 03:36:03;;;;;;;18.30;16.20;;;;;;;17.59;100.00;100396.56;104941;1268;67245;-58
2023/09/02 03:38:30;;;;;;;20.20;16.40;;;;;;;17.83;100.00;100401.30;105003;1266;71776;-59
2023/09/02 03:40:58;;;;;;;17.00;14.90;;;;;;;18.11;100.00;100404.17;105059;1264;61283;-59
2023/09/02 03:43:25;;;;;;;20.00;17.00;;;;;;;18.45;100.00;100410.92;105192;1264;61275;-61
2023/09/02 03:45:52;;;;;;;17.80;15.10;;;;;;;18.82;100.00;100413.73;104651;1270;74117;-60
2023/09/02 03:48:19;;;;;;;18.30;15.30;;;;;;;19.22;100.00;100413.88;104908;1268;67106;-59
2023/09/02 03:51:16;;;;;;;19.30;14.50;;;;;;;19.63;100.00;100421.73;104977;1269;73254;-58
2023/09/02 03:53:46;;;;;;;16.80;15.00;;;;;;;20.09;100.00;100417.77;104833;1270;62007;-60
2023/09/02 03:56:14;;;;;;;17.60;15.20;;;;;;;20.43;100.00;100421.05;104993;1268;61162;-60
2023/09/02 03:58:41;;;;;;;17.00;15.00;;;;;;;20.71;100.00;100421.99;104964;1266;74583;-59
2023/09/02 04:01:09;;;;;;;18.00;14.90;;;;;;;21.00;100.00;100422.86;105044;1266;65937;-62
2023/09/02 04:03:36;;;;;;;16.50;14.60;;;;;;;21.29;100.00;100418.55;104830;1268;71136;-58
2023/09/02 04:06:04;;;;;;;17.50;15.60;;;;;;;21.61;100.00;100408.23;105202;1268;61158;-64
2023/09/02 04:08:34;;;;;;;16.80;15.00;;;;;;;21.91;100.00;100400.23;104966;1264;61312;-58
2023/09/02 04:11:02;;;;;;;17.90;16.00;;;;;;;22.19;100.00;100387.02;105184;1267;74734;-62
2023/09/02 04:13:29;;;;;;;19.20;16.20;;;;;;;22.43;100.00;100369.04;104806;1266;66196;-59
2023/09/02 04:16:00;;;;;;;;;;;;;;;22.68;100.00;100354.00;104652;1268;71255;-59
2023/09/02 04:18:31;;;;;;;21.30;17.20;;;;;;;22.94;100.00;100335.59;104786;1269;61344;-59
2023/09/02 04:21:00;;;;;;;19.70;17.60;;;;;;;23.22;100.00;100318.29;105024;1263;61316;-60
2023/09/02 04:23:27;;;;;;;19.10;17.10;;;;;;;23.56;100.00;100301.73;105026;1267;74752;-59
2023/09/02 04:25:56;;;;;;;19.30;17.30;;;;;;;23.97;100.00;100291.83;105233;1263;67300;-61
2023/09/02 04:28:24;;;;;;;18.50;16.70;;;;;;;24.40;100.00;100280.71;105085;1264;72593;-60
2023/09/02 04:30:56;;;;;;;19.50;17.60;;;;;;;24.86;100.00;100263.91;105016;1267;61206;-67
2023/09/02 04:33:25;;;;;;;20.20;18.20;;;;;;;25.33;100.00;100252.35;104852;1263;61165;-59
2023/09/02 04:35:54;;;;;;;20.40;18.20;;;;;;;25.73;100.00;100238.30;104957;1263;73477;-60
2023/09/02 04:38:22;;;;;;;18.70;16.90;;;;;;;26.07;100.00;100234.03;104924;1267;66157;-59
2023/09/02 04:40:53;;;;;;;16.90;15.30;;;;;;;26.38;100.00;100224.89;104821;1268;73114;-61
2023/09/02 04:43:20;;;;;;;18.30;16.50;;;;;;;26.69;100.00;100220.77;104943;1267;61354;-60
2023/09/02 04:45:49;;;;;;;19.20;17.30;;;;;;;26.97;100.00;100219.57;105137;1264;61327;-61
2023/09/02 04:48:17;;;;;;;19.50;17.60;;;;;;;27.32;100.00;100212.31;104848;1270;74828;-61
2023/09/02 04:50:51;;;;;;;17.80;16.10;;;;;;;27.68;100.00;100210.84;105093;1264;66401;-66
2023/09/02 04:53:18;;;;;;;17.20;15.50;;;;;;;28.01;100.00;100215.91;104878;1268;72669;-59
2023/09/02 04:55:47;;;;;;;18.00;16.30;;;;;;;28.28;100.00;100214.50;105038;1270;61100;-68
2023/09/02 04:58:15;;;;;;;19.30;17.50;;;;;;;28.53;100.00;100212.70;105052;1263;61133;-60
2023/09/02 05:00:43;;;;;;;17.90;15.70;;;;;;;28.74;100.00;100210.16;104833;1264;75209;-60
2023/09/02 05:03:10;;;;;;;18.30;16.50;;;;;;;28.95;100.00;100209.98;105100;1264;67220;-63
2023/09/02 05:05:37;;;;;;;16.30;14.70;;;;;;;29.09;100.00;100209.38;105236;1264;72704;-69
2023/09/02 05:08:07;;;;;;;16.40;14.80;;;;;;;29.25;100.00;100211.15;104810;1270;61353;-61
2023/09/02 05:10:35;;;;;;;16.40;14.80;;;;;;;29.40;100.00;100210.55;105132;1263;61231;-68
2023/09/02 05:13:03;;;;;;;16.60;15.00;;;;;;;29.50;100.00;100209.04;105061;1264;73740;-62
2023/09/02 05:15:31;;;;;;;16.30;14.60;;;;;;;29.62;100.00;100214.23;104828;1268;65647;-61
2023/09/02 05:17:58;;;;;;;16.50;14.90;;;;;;;29.80;100.00;100219.99;105011;1267;73690;-64
2023/09/02 05:20:27;;;;;;;17.50;15.50;;;;;;;30.06;100.00;100223.11;104850;1266;61295;-71
2023/09/02 05:22:54;;;;;;;15.20;13.80;;;;;;;30.22;100.00;100226.58;104882;1269;61192;-63
2023/09/02 05:25:22;;;;;;;16.40;14.90;;;;;;;30.32;100.00;100227.16;104938;1268;74728;-64
2023/09/02 05:27:49;;;;;;;16.10;14.60;;;;;;;30.48;100.00;100231.20;105105;1264;67170;-64
2023/09/02 05:30:16;;;;;;;15.00;13.40;;;;;;;30.58;100.00;100231.93;105077;1267;72675;-64
2023/09/02 05:32:44;;;;;;;15.20;13.80;;;;;;;30.41;100.00;100229.50;105063;1267;61250;-61
2023/09/02 05:35:11;;;;;;;17.40;13.80;;;;;;;30.04;100.00;100232.27;105023;1264;61174;-63
2023/09/02 05:37:38;;;;;;;16.20;14.60;;;;;;;29.47;100.00;100235.63;104896;1264;73303;-66
2023/09/02 05:40:07;;;;;;;15.10;13.60;;;;;;;29.01;100.00;100232.86;104898;1263;67695;-64
2023/09/02 05:42:34;;;;;;;16.10;14.60;;;;;;;28.84;100.00;100230.39;105339;1264;73446;-65
2023/09/02 05:45:01;;;;;;;15.10;13.60;;;;;;;28.72;100.00;100227.61;104985;1263;61853;-63
2023/09/02 05:47:28;;;;;;;15.40;13.90;;;;;;;28.74;100.00;100223.74;104784;1263;61765;-62
2023/09/02 05:49:56;;;;;;;15.20;13.70;;;;;;;28.92;100.00;100224.59;105246;1266;74681;-65
2023/09/02 05:52:22;;;;;;;15.40;13.90;;;;;;;29.13;100.00;100224.30;104750;1267;64964;-68
2023/09/02 05:54:49;;;;;;;14.10;12.70;;;;;;;29.43;100.00;100229.48;104986;1267;71250;-63
2023/09/02 05:57:16;;;;;;;14.20;12.80;;;;;;;29.87;100.00;100231.90;104985;1267;61295;-61
2023/09/02 05:59:44;;;;;;;14.60;13.10;;;;;;;30.11;100.00;100232.96;105130;1264;61257;-61
2023/09/02 06:02:11;;;;;;;15.10;13.80;;;;;;;30.08;100.00;100233.80;105250;1263;74685;-67
2023/09/02 06:04:38;;;;;;;14.60;13.10;;;;;;;30.02;100.00;100234.46;104769;1263;68023;-62
2023/09/02 06:07:05;;;;;;;14.30;12.90;;;;;;;29.97;100.00;100231.92;104903;1265;71400;-62
2023/09/02 06:09:32;;;;;;;15.30;13.80;;;;;;;29.91;100.00;100235.36;105035;1264;61249;-61
2023/09/02 06:11:59;;;;;;;14.30;13.00;;;;;;;29.79;100.00;100242.38;105418;1263;61250;-66
2023/09/02 06:14:26;;;;;;;15.90;14.30;;;;;;;29.66;100.00;100244.96;105052;1264;75189;-63
2023/09/02 06:16:53;;;;;;;15.90;14.40;;;;;;;29.61;100.00;100253.41;104903;1266;67101;-62
2023/09/02 06:19:20;;;;;;;16.00;14.40;;;;;;;29.59;100.00;100256.19;104829;1267;72457;-62
2023/09/02 06:21:47;;;;;;;15.40;13.90;;;;;;;29.68;100.00;100257.04;105187;1264;61355;-65
2023/09/02 06:24:15;;;;;;;13.00;11.80;;;;;;;29.81;100.00;100263.37;105194;1263;60647;-67
2023/09/02 06:26:42;;;;;;;15.00;13.50;;;;;;;30.02;100.00;100266.18;104936;1263;74454;-63
2023/09/02 06:29:09;;;;;;;14.70;13.30;;;;;;;30.25;100.00;100270.36;105171;1264;68018;-62
2023/09/02 06:31:37;;;;;;;14.00;12.70;;;;;;;30.61;100.00;100277.13;105077;1267;72053;-63
2023/09/02 06:34:03;;;;;;;15.60;14.10;;;;;;;30.98;100.00;100278.36;105302;1264;61286;-62
2023/09/02 06:36:30;;;;;;;13.90;12.60;;;;;;;31.24;100.00;100276.83;104795;1267;61209;-61
2023/09/02 06:38:57;;;;;;;14.00;12.70;;;;;;;31.62;100.00;100279.21;105068;1264;73385;-61
2023/09/02 06:41:24;;;;;;;14.30;13.00;;;;;;;32.00;100.00;100282.17;104947;1267;65981;-62
2023/09/02 06:43:54;;;;;;;13.60;12.30;;;;;;;32.21;100.00;100282.29;105287;1263;72705;-64
2023/09/02 06:46:21;;;;;;;13.80;12.30;;;;;;;32.41;100.00;100278.04;104849;1267;61360;-61
2023/09/02 06:48:48;;;;;;;13.60;12.40;;;;;;;32.56;100.00;100279.67;104986;1263;61458;-61
2023/09/02 06:51:15;;;;;;;14.40;13.00;;;;;;;32.69;99.79;100282.52;105071;1263;74912;-61
2023/09/02 06:53:43;;;;;;;14.30;13.10;;;;;;;32.80;99.84;100282.77;105057;1263;67210;-62
2023/09/02 06:56:13;;;;;;;15.00;13.60;;;;;;;32.87;99.66;100282.95;104792;1263;72456;-66
2023/09/02 06:58:42;;;;;;;14.00;12.70;;;;;;;32.99;98.79;100286.40;104835;1270;61385;-62
2023/09/02 07:01:16;;;;;;;13.90;12.60;;;;;;;33.04;98.79;100288.73;104781;1270;61342;-61
2023/09/02 07:03:44;;;;;;;12.70;11.60;;;;;;;33.22;98.44;100285.40;104983;1262;73493;-63
2023/09/02 07:06:15;;;;;;;13.40;12.10;;;;;;;33.54;92.58;100282.02;105271;1264;67725;-63
2023/09/02 07:08:45;;;;;;;13.80;12.50;;;;;;;33.76;86.38;100278.60;104802;1267;65105;-62
2023/09/02 07:11:12;;;;;;;14.80;13.40;;;;;;;33.84;83.68;100278.08;105035;1264;61239;-62
2023/09/02 07:13:39;;;;;;;14.60;13.20;;;;;;;34.00;84.44;100279.43;105062;1263;61361;-63
2023/09/02 07:16:06;;;;;;;13.40;12.20;;;;;;;34.18;77.99;100283.44;104922;1262;65597;-63
2023/09/02 07:18:34;;;;;;;13.30;12.10;;;;;;;34.21;75.80;100281.31;104967;1262;66001;-63
2023/09/02 07:21:02;;;;;;;13.40;12.20;;;;;;;34.10;78.52;100283.91;104961;1266;71388;-65
2023/09/02 07:23:29;;;;;;;13.60;12.30;;;;;;;34.10;78.88;100284.30;105290;1265;61386;-66
2023/09/02 07:25:59;;;;;;;14.90;13.40;;;;;;;34.21;81.88;100285.26;105021;1276;61328;-63
2023/09/02 07:28:30;;;;;;;13.70;12.40;;;;;;;34.44;79.50;100280.28;105056;1264;64908;-66
2023/09/02 07:31:05;;;;;;;14.10;12.80;;;;;;;34.54;74.53;100277.59;104515;1263;61247;-63
2023/09/02 07:33:32;;;;;;;13.30;12.00;;;;;;;34.42;75.09;100275.43;104785;1263;62847;-67
2023/09/02 07:35:59;;;;;;;13.20;11.90;;;;;;;34.35;76.68;100279.64;104813;1263;61448;-62
2023/09/02 07:38:26;;;;;;;13.00;11.80;;;;;;;34.45;75.85;100280.22;105105;1263;61365;-64
2023/09/02 07:40:53;;;;;;;13.60;12.30;;;;;;;34.52;73.76;100278.52;104860;1264;65928;-63
2023/09/02 07:43:20;;;;;;;13.50;12.20;;;;;;;34.52;75.88;100280.07;104953;1263;61252;-63
2023/09/02 07:45:48;;;;;;;13.60;11.50;;;;;;;34.63;75.50;100280.84;105015;1263;64143;-64
2023/09/02 07:48:15;;;;;;;13.80;12.40;;;;;;;34.74;73.51;100282.13;104922;1263;61291;-67
2023/09/02 07:50:43;;;;;;;14.50;13.10;;;;;;;34.79;70.90;100284.67;104884;1266;61251;-63
2023/09/02 07:53:10;;;;;;;13.90;12.60;;;;;;;34.73;70.98;100288.16;104917;1267;65890;-63
2023/09/02 07:55:37;;;;;;;14.40;12.50;;;;;;;34.71;72.17;100290.42;105038;1262;61277;-64
2023/09/02 07:58:04;;;;;;;14.40;13.20;;;;;;;34.75;72.34;100288.59;104948;1263;64151;-64
2023/09/02 08:00:35;;;;;;;13.70;12.40;;;;;;;34.68;74.13;100290.89;105158;1267;61346;-65
2023/09/02 08:03:06;;;;;;;13.70;12.30;;;;;;;34.73;73.98;100292.42;104991;1267;61203;-62
2023/09/02 08:05:37;;;;;;;13.30;11.90;;;;;;;34.81;70.24;100297.48;104933;1262;65805;-63
2023/09/02 08:08:04;;;;;;;13.40;11.30;;;;;;;34.70;71.31;100303.77;104894;1263;67250;-62
2023/09/02 08:10:31;;;;;;;11.70;10.70;;;;;;;34.63;75.13;100307.61;104965;1268;62633;-62
2023/09/02 08:12:58;;;;;;;13.20;11.90;;;;;;;34.71;69.58;100305.73;104941;1267;61408;-63
2023/09/02 08:15:25;;;;;;;13.50;12.20;;;;;;;34.61;67.73;100302.45;105032;1262;61168;-63
2023/09/02 08:17:52;;;;;;;12.10;11.00;;;;;;;34.45;71.97;100308.06;104960;1266;66038;-63
2023/09/02 08:20:19;;;;;;;12.40;11.30;;;;;;;34.45;74.77;100308.52;105159;1264;61413;-65
2023/09/02 08:22:46;;;;;;;13.40;12.20;;;;;;;34.52;72.97;100309.23;104917;1262;72517;-62
2023/09/02 08:25:13;;;;;;;13.50;12.30;;;;;;;34.55;73.62;100311.59;104800;1262;61114;-62
2023/09/02 08:27:45;;;;;;;14.10;12.70;;;;;;;34.63;72.85;100307.98;104930;1266;61113;-64
2023/09/02 08:30:13;;;;;;;13.10;11.90;;;;;;;34.56;71.31;100300.52;105024;1266;66080;-63
2023/09/02 08:32:40;;;;;;;14.10;12.60;;;;;;;34.50;73.31;100303.93;104828;1262;61244;-63
2023/09/02 08:35:08;;;;;;;14.00;11.60;;;;;;;34.55;72.73;100306.20;104964;1262;62751;-63
2023/09/02 08:37:37;;;;;;;13.10;11.80;;;;;;;34.54;70.09;100303.55;105546;1262;61525;-65
2023/09/02 08:40:04;;;;;;;12.00;10.70;;;;;;;34.54;69.58;100306.11;104848;1265;61177;-62
2023/09/02 08:42:33;;;;;;;14.00;12.50;;;;;;;34.49;68.20;100302.34;104656;1263;66245;-66
2023/09/02 08:45:00;;;;;;;13.40;12.10;;;;;;;34.32;68.07;100303.59;105093;1264;61327;-62
2023/09/02 08:47:27;;;;;;;13.50;12.30;;;;;;;34.15;71.03;100308.35;105080;1263;62725;-65
2023/09/02 08:49:54;;;;;;;12.90;11.60;;;;;;;34.07;70.06;100309.67;104678;1263;61309;-62
2023/09/02 08:52:22;;;;;;;12.40;11.20;;;;;;;34.04;70.80;100313.44;105199;1263;61225;-63
2023/09/02 08:54:50;;;;;;;12.30;11.00;;;;;;;34.19;71.85;100313.34;104998;1262;64804;-64
2023/09/02 08:57:18;;;;;;;12.50;11.00;;;;;;;34.45;74.14;100312.48;104907;1262;67267;-66
2023/09/02 08:59:45;;;;;;;12.30;11.20;;;;;;;34.78;72.46;100309.25;104797;1262;64044;-62
2023/09/02 09:02:12;;;;;;;13.30;12.10;;;;;;;35.03;68.09;100311.34;104955;1263;61349;-62
2023/09/02 09:04:39;;;;;;;12.50;11.20;;;;;;;35.04;65.00;100310.45;105140;1268;61162;-62
2023/09/02 09:07:06;;;;;;;12.40;11.10;;;;;;;35.03;64.65;100311.20;104837;1266;65914;-63
2023/09/02 09:09:35;;;;;;;11.50;10.40;;;;;;;35.01;65.19;100315.19;105050;1266;61369;-65
2023/09/02 09:12:03;;;;;;;12.10;10.90;;;;;;;35.00;64.18;100317.85;104884;1264;72721;-62
2023/09/02 09:14:34;;;;;;;13.60;12.30;;;;;;;34.94;63.38;100314.42;104987;1270;61318;-63
2023/09/02 09:17:02;;;;;;;13.40;12.10;;;;;;;34.81;65.43;100313.37;104870;1265;61560;-64
2023/09/02 09:19:29;;;;;;;12.80;11.70;;;;;;;34.68;71.17;100313.06;104981;1266;226390;-64
2023/09/02 09:21:57;;;;;;;14.00;11.10;;;;;;;34.76;72.95;100318.02;104686;1265;65827;-62
2023/09/02 09:24:24;;;;;;;11.70;10.70;;;;;;;34.89;67.47;100317.38;105029;1263;63877;-63
2023/09/02 09:26:51;;;;;;;12.80;11.50;;;;;;;34.93;64.59;100318.80;105136;1263;61399;-65
2023/09/02 09:29:20;;;;;;;11.40;10.20;;;;;;;34.74;63.48;100320.27;105033;1263;59864;-62
2023/09/02 09:31:50;;;;;;;11.00;9.90;;;;;;;34.61;59.26;100325.95;105097;1264;66439;-63
2023/09/02 09:34:17;;;;;;;12.60;10.20;;;;;;;34.59;60.33;100326.36;104891;1266;67101;-62
2023/09/02 09:36:44;;;;;;;11.00;10.00;;;;;;;34.55;62.85;100328.49;104836;1268;64846;-62
2023/09/02 09:39:11;;;;;;;11.60;10.50;;;;;;;34.53;62.76;100334.61;104478;1270;60974;-63
2023/09/02 09:41:45;;;;;;;11.90;10.30;;;;;;;34.36;63.47;100333.48;104993;1263;61125;-62
2023/09/02 09:44:13;;;;;;;11.30;10.20;;;;;;;34.25;68.05;100337.71;105026;1262;64816;-61
2023/09/02 09:46:43;;;;;;;11.50;10.30;;;;;;;34.29;67.94;100337.99;105247;1264;61393;-62
2023/09/02 09:49:32;;;;;;;10.80;9.70;;;;;;;34.29;69.52;100337.74;104855;1262;62924;-65
2023/09/02 09:51:59;;;;;;;11.90;10.10;;;;;;;34.40;69.98;100340.16;105022;1264;61246;-63
2023/09/02 09:54:53;;;;;;;11.30;10.20;;;;;;;34.53;71.17;100343.23;104997;1262;61398;-64
2023/09/02 09:57:29;;;;;;;11.10;10.00;;;;;;;34.59;69.00;100346.65;104903;1262;64624;-61
2023/09/02 09:59:57;;;;;;;10.80;9.80;;;;;;;34.62;67.82;100346.64;104821;1266;61268;-64
2023/09/02 10:02:24;;;;;;;10.90;9.80;;;;;;;34.69;65.49;100345.73;105007;1267;62550;-60
2023/09/02 10:04:55;;;;;;;10.60;9.20;;;;;;;34.69;65.36;100346.29;105008;1267;61271;-63
2023/09/02 10:07:24;;;;;;;10.00;9.00;;;;;;;34.52;65.03;100347.82;105000;1264;61261;-60
2023/09/02 10:09:55;;;;;;;9.40;8.50;;;;;;;34.24;67.52;100349.50;104869;1266;66004;-64
2023/09/02 10:12:22;;;;;;;;;;;;;;;33.93;70.68;100351.63;104921;1263;59730;-63
2023/09/02 10:14:50;;;;;;;10.60;9.50;;;;;;;33.60;74.20;100353.85;104642;1262;73427;-61
2023/09/02 10:17:17;;;;;;;10.70;9.60;;;;;;;33.42;78.19;100354.80;104926;1267;61278;-60
2023/09/02 10:19:45;;;;;;;10.10;9.20;;;;;;;33.30;81.53;100354.67;104999;1265;61274;-62
2023/09/02 10:22:19;;;;;;;10.60;9.60;;;;;;;33.14;83.36;100348.52;104903;1263;66147;-64
2023/09/02 10:25:07;;;;;;;11.10;9.50;;;;;;;33.16;85.15;100352.27;104754;1266;65991;-61
2023/09/02 10:27:38;;;;;;;9.70;8.80;;;;;;;33.25;85.51;100349.50;105038;1262;63650;-61
2023/09/02 10:30:07;;;;;;;10.40;9.40;;;;;;;33.34;85.48;100345.17;105029;1263;61183;-62
2023/09/02 10:32:41;;;;;;;10.30;9.10;;;;;;;33.39;84.23;100348.05;104956;1264;61212;-61
2023/09/02 10:35:13;;;;;;;9.50;8.50;;;;;;;33.39;81.93;100352.36;104895;1262;74012;-62
2023/09/02 10:37:56;;;;;;;11.80;9.70;;;;;;;33.35;82.07;100352.16;104844;1266;61277;-64
2023/09/02 10:40:24;;;;;;;9.00;8.10;;;;;;;33.35;81.18;100350.61;104907;1264;64025;-61
2023/09/02 10:42:53;;;;;;;9.40;8.30;;;;;;;33.33;85.76;100352.95;105069;1262;61325;-65
2023/09/02 10:45:20;;;;;;;8.70;7.80;;;;;;;33.45;82.02;100352.66;104927;1263;59842;-60
2023/09/02 10:47:49;;;;;;;8.70;7.70;;;;;;;33.60;81.52;100351.50;105096;1265;65962;-62
2023/09/02 10:50:17;;;;;;;8.50;7.10;;;;;;;33.58;77.74;100351.63;104780;1266;61244;-62
2023/09/02 10:52:44;;;;;;;8.50;7.30;;;;;;;33.42;78.54;100353.09;105139;1263;64148;-64
2023/09/02 10:55:11;;;;;;;7.70;6.90;;;;;;;33.48;80.32;100356.69;104897;1267;61290;-61
2023/09/02 10:57:54;;;;;;;7.50;6.70;;;;;;;33.56;69.24;100350.27;105144;1262;61050;-64
2023/09/02 11:00:27;;;;;;;9.10;7.40;;;;;;;33.59;73.96;100346.27;105221;1262;66832;-62
2023/09/02 11:02:58;;;;;;;7.80;7.00;;;;;;;33.85;72.24;100349.73;105240;1262;67241;-59
2023/09/02 11:05:27;;;;;;;8.30;7.50;;;;;;;33.85;68.29;100349.98;105032;1262;71817;-62